sensor_id;sensor_type;location;lat;lon;timestamp;temperature;humidity
6756;DHT22;3415;51.148;7.014;2022-10-30T00:00:19;17.50;1.00
6756;DHT22;3415;51.148;7.014;2022-10-30T00:02:47;17.60;1.00
6756;DHT22;3415;51.148;7.014;2022-10-30T00:05:15;17.60;1.00
6756;DHT22;3415;51.148;7.014;2022-10-30T00:07:43;17.60;1.00
6756;DHT22;3415;51.148;7.014;2022-10-30T00:10:10;17.60;1.00
6756;DHT22;3415;51.148;7.014;2022-10-30T00:12:36;17.50;1.00
6756;DHT22;3415;51.148;7.014;2022-10-30T00:15:04;17.80;1.00
6756;DHT22;3415;51.148;7.014;2022-10-30T00:17:31;17.50;1.00
6756;DHT22;3415;51.148;7.014;2022-10-30T00:19:58;17.40;1.00
6756;DHT22;3415;51.148;7.014;2022-10-30T00:22:25;17.50;1.00
6756;DHT22;3415;51.148;7.014;2022-10-30T00:24:53;17.50;1.00
6756;DHT22;3415;51.148;7.014;2022-10-30T00:27:20;17.70;1.00
6756;DHT22;3415;51.148;7.014;2022-10-30T00:29:47;17.50;1.00
6756;DHT22;3415;51.148;7.014;2022-10-30T00:32:14;17.50;1.00
6756;DHT22;3415;51.148;7.014;2022-10-30T00:34:40;17.60;1.00
6756;DHT22;3415;51.148;7.014;2022-10-30T00:37:07;17.60;1.00
6756;DHT22;3415;51.148;7.014;2022-10-30T00:39:34;17.50;1.00
6756;DHT22;3415;51.148;7.014;2022-10-30T00:42:02;17.50;1.00
6756;DHT22;3415;51.148;7.014;2022-10-30T00:44:36;17.50;1.00
6756;DHT22;3415;51.148;7.014;2022-10-30T00:47:06;17.60;1.00
6756;DHT22;3415;51.148;7.014;2022-10-30T00:49:38;17.40;1.00
6756;DHT22;3415;51.148;7.014;2022-10-30T00:52:10;17.50;1.00
6756;DHT22;3415;51.148;7.014;2022-10-30T00:54:37;17.40;1.00
6756;DHT22;3415;51.148;7.014;2022-10-30T00:57:06;17.40;1.00
6756;DHT22;3415;51.148;7.014;2022-10-30T00:59:35;17.40;1.00
6756;DHT22;3415;51.148;7.014;2022-10-30T01:02:03;17.40;1.00
6756;DHT22;3415;51.148;7.014;2022-10-30T01:04:31;17.30;1.00
6756;DHT22;3415;51.148;7.014;2022-10-30T01:07:05;17.30;1.00
6756;DHT22;3415;51.148;7.014;2022-10-30T01:09:34;17.30;1.00
6756;DHT22;3415;51.148;7.014;2022-10-30T01:14:29;17.20;1.00
6756;DHT22;3415;51.148;7.014;2022-10-30T01:17:09;17.20;1.00
6756;DHT22;3415;51.148;7.014;2022-10-30T01:19:41;17.10;1.00
6756;DHT22;3415;51.148;7.014;2022-10-30T01:22:19;17.20;1.00
6756;DHT22;3415;51.148;7.014;2022-10-30T01:25:00;17.00;1.00
6756;DHT22;3415;51.148;7.014;2022-10-30T01:27:38;17.00;1.00
6756;DHT22;3415;51.148;7.014;2022-10-30T01:30:21;16.90;1.00
6756;DHT22;3415;51.148;7.014;2022-10-30T01:33:02;16.90;1.00
6756;DHT22;3415;51.148;7.014;2022-10-30T01:35:35;17.00;1.00
6756;DHT22;3415;51.148;7.014;2022-10-30T01:38:06;17.10;1.00
6756;DHT22;3415;51.148;7.014;2022-10-30T01:40:36;17.00;1.00
6756;DHT22;3415;51.148;7.014;2022-10-30T01:43:03;17.00;1.00
6756;DHT22;3415;51.148;7.014;2022-10-30T01:45:45;17.00;1.00
6756;DHT22;3415;51.148;7.014;2022-10-30T01:48:40;16.90;1.00
6756;DHT22;3415;51.148;7.014;2022-10-30T01:51:14;17.20;1.00
6756;DHT22;3415;51.148;7.014;2022-10-30T01:53:51;17.00;1.00
6756;DHT22;3415;51.148;7.014;2022-10-30T01:56:29;17.10;1.00
6756;DHT22;3415;51.148;7.014;2022-10-30T01:59:07;17.00;1.00
6756;DHT22;3415;51.148;7.014;2022-10-30T02:01:37;17.00;1.00
6756;DHT22;3415;51.148;7.014;2022-10-30T02:04:06;17.00;1.00
6756;DHT22;3415;51.148;7.014;2022-10-30T02:06:34;17.20;1.00
6756;DHT22;3415;51.148;7.014;2022-10-30T02:09:01;17.00;1.00
6756;DHT22;3415;51.148;7.014;2022-10-30T02:11:28;17.00;1.00
6756;DHT22;3415;51.148;7.014;2022-10-30T02:13:56;16.90;1.00
6756;DHT22;3415;51.148;7.014;2022-10-30T02:16:24;17.00;1.00
6756;DHT22;3415;51.148;7.014;2022-10-30T02:18:52;17.00;1.00
6756;DHT22;3415;51.148;7.014;2022-10-30T02:21:20;17.20;1.00
6756;DHT22;3415;51.148;7.014;2022-10-30T02:23:47;16.80;1.00
6756;DHT22;3415;51.148;7.014;2022-10-30T02:26:14;16.80;1.00
6756;DHT22;3415;51.148;7.014;2022-10-30T02:28:41;16.70;1.00
6756;DHT22;3415;51.148;7.014;2022-10-30T02:31:07;16.60;1.00
6756;DHT22;3415;51.148;7.014;2022-10-30T02:33:35;16.50;1.00
6756;DHT22;3415;51.148;7.014;2022-10-30T02:36:02;16.50;1.00
6756;DHT22;3415;51.148;7.014;2022-10-30T02:38:30;16.40;1.00
6756;DHT22;3415;51.148;7.014;2022-10-30T02:40:57;16.30;1.00
6756;DHT22;3415;51.148;7.014;2022-10-30T02:43:23;16.20;1.00
6756;DHT22;3415;51.148;7.014;2022-10-30T02:45:50;16.20;1.00
6756;DHT22;3415;51.148;7.014;2022-10-30T02:48:17;16.00;1.00
6756;DHT22;3415;51.148;7.014;2022-10-30T02:50:44;16.10;1.00
6756;DHT22;3415;51.148;7.014;2022-10-30T02:53:11;16.00;1.00
6756;DHT22;3415;51.148;7.014;2022-10-30T02:55:39;15.90;1.00
6756;DHT22;3415;51.148;7.014;2022-10-30T02:58:06;15.80;1.00
6756;DHT22;3415;51.148;7.014;2022-10-30T03:00:33;15.80;1.00
6756;DHT22;3415;51.148;7.014;2022-10-30T03:02:59;15.80;1.00
6756;DHT22;3415;51.148;7.014;2022-10-30T03:05:26;15.80;1.00
6756;DHT22;3415;51.148;7.014;2022-10-30T03:07:53;16.00;1.00
6756;DHT22;3415;51.148;7.014;2022-10-30T03:10:20;15.80;1.00
6756;DHT22;3415;51.148;7.014;2022-10-30T03:12:48;15.80;1.00
6756;DHT22;3415;51.148;7.014;2022-10-30T03:15:15;15.70;1.00
6756;DHT22;3415;51.148;7.014;2022-10-30T03:17:42;15.70;1.00
6756;DHT22;3415;51.148;7.014;2022-10-30T03:20:10;15.60;1.00
6756;DHT22;3415;51.148;7.014;2022-10-30T03:22:37;15.50;1.00
6756;DHT22;3415;51.148;7.014;2022-10-30T03:25:04;15.50;1.00
6756;DHT22;3415;51.148;7.014;2022-10-30T03:27:31;15.40;1.00
6756;DHT22;3415;51.148;7.014;2022-10-30T03:29:59;15.20;1.00
6756;DHT22;3415;51.148;7.014;2022-10-30T03:32:26;15.10;1.00
6756;DHT22;3415;51.148;7.014;2022-10-30T03:34:53;14.90;1.00
6756;DHT22;3415;51.148;7.014;2022-10-30T03:37:20;14.80;1.00
6756;DHT22;3415;51.148;7.014;2022-10-30T03:39:46;14.80;1.00
6756;DHT22;3415;51.148;7.014;2022-10-30T03:42:13;14.60;1.00
6756;DHT22;3415;51.148;7.014;2022-10-30T03:44:40;14.50;1.00
6756;DHT22;3415;51.148;7.014;2022-10-30T03:47:08;14.40;1.00
6756;DHT22;3415;51.148;7.014;2022-10-30T03:49:35;14.30;1.00
6756;DHT22;3415;51.148;7.014;2022-10-30T03:52:02;14.10;1.00
6756;DHT22;3415;51.148;7.014;2022-10-30T03:56:55;14.00;1.00
6756;DHT22;3415;51.148;7.014;2022-10-30T03:59:22;14.00;1.00
6756;DHT22;3415;51.148;7.014;2022-10-30T04:01:49;14.50;1.00
6756;DHT22;3415;51.148;7.014;2022-10-30T04:04:17;14.10;1.00
6756;DHT22;3415;51.148;7.014;2022-10-30T04:06:44;14.10;1.00
6756;DHT22;3415;51.148;7.014;2022-10-30T04:09:11;14.40;1.00
6756;DHT22;3415;51.148;7.014;2022-10-30T04:11:37;14.20;1.00
6756;DHT22;3415;51.148;7.014;2022-10-30T04:14:04;14.20;1.00
6756;DHT22;3415;51.148;7.014;2022-10-30T04:16:31;14.10;1.00
6756;DHT22;3415;51.148;7.014;2022-10-30T04:18:58;14.40;1.00
6756;DHT22;3415;51.148;7.014;2022-10-30T04:21:26;14.70;1.00
6756;DHT22;3415;51.148;7.014;2022-10-30T04:23:53;14.50;1.00
6756;DHT22;3415;51.148;7.014;2022-10-30T04:26:21;14.50;1.00
6756;DHT22;3415;51.148;7.014;2022-10-30T04:28:48;14.50;1.00
6756;DHT22;3415;51.148;7.014;2022-10-30T04:31:14;14.50;1.00
6756;DHT22;3415;51.148;7.014;2022-10-30T04:33:41;14.60;1.00
6756;DHT22;3415;51.148;7.014;2022-10-30T04:36:08;14.30;1.00
6756;DHT22;3415;51.148;7.014;2022-10-30T04:38:36;14.30;1.00
6756;DHT22;3415;51.148;7.014;2022-10-30T04:41:03;14.20;1.00
6756;DHT22;3415;51.148;7.014;2022-10-30T04:43:30;14.10;1.00
6756;DHT22;3415;51.148;7.014;2022-10-30T04:45:57;14.00;1.00
6756;DHT22;3415;51.148;7.014;2022-10-30T04:48:24;14.00;1.00
6756;DHT22;3415;51.148;7.014;2022-10-30T04:50:51;13.90;1.00
6756;DHT22;3415;51.148;7.014;2022-10-30T04:53:19;13.80;1.00
6756;DHT22;3415;51.148;7.014;2022-10-30T04:55:52;13.80;1.00
6756;DHT22;3415;51.148;7.014;2022-10-30T04:58:19;13.70;1.00
6756;DHT22;3415;51.148;7.014;2022-10-30T05:00:46;13.70;1.00
6756;DHT22;3415;51.148;7.014;2022-10-30T05:03:18;13.70;1.00
6756;DHT22;3415;51.148;7.014;2022-10-30T05:05:45;13.50;1.00
6756;DHT22;3415;51.148;7.014;2022-10-30T05:08:12;13.50;1.00
6756;DHT22;3415;51.148;7.014;2022-10-30T05:10:39;13.50;1.00
6756;DHT22;3415;51.148;7.014;2022-10-30T05:13:09;13.50;1.00
6756;DHT22;3415;51.148;7.014;2022-10-30T05:15:36;13.50;1.00
6756;DHT22;3415;51.148;7.014;2022-10-30T05:18:03;13.50;1.00
6756;DHT22;3415;51.148;7.014;2022-10-30T05:20:30;13.50;1.00
6756;DHT22;3415;51.148;7.014;2022-10-30T05:22:58;13.60;1.00
6756;DHT22;3415;51.148;7.014;2022-10-30T05:25:26;13.60;1.00
6756;DHT22;3415;51.148;7.014;2022-10-30T05:27:56;13.90;1.00
6756;DHT22;3415;51.148;7.014;2022-10-30T05:30:25;14.00;1.00
6756;DHT22;3415;51.148;7.014;2022-10-30T05:32:56;13.60;1.00
6756;DHT22;3415;51.148;7.014;2022-10-30T05:35:23;13.70;1.00
6756;DHT22;3415;51.148;7.014;2022-10-30T05:37:50;13.70;1.00
6756;DHT22;3415;51.148;7.014;2022-10-30T05:40:17;13.70;1.00
6756;DHT22;3415;51.148;7.014;2022-10-30T05:42:44;13.70;1.00
6756;DHT22;3415;51.148;7.014;2022-10-30T05:45:11;13.70;1.00
6756;DHT22;3415;51.148;7.014;2022-10-30T05:47:40;13.80;1.00
6756;DHT22;3415;51.148;7.014;2022-10-30T05:50:07;13.80;1.00
6756;DHT22;3415;51.148;7.014;2022-10-30T05:52:35;13.70;1.00
6756;DHT22;3415;51.148;7.014;2022-10-30T05:55:02;13.70;1.00
6756;DHT22;3415;51.148;7.014;2022-10-30T05:57:29;13.70;1.00
6756;DHT22;3415;51.148;7.014;2022-10-30T05:59:57;13.80;1.00
6756;DHT22;3415;51.148;7.014;2022-10-30T06:02:24;13.60;1.00
6756;DHT22;3415;51.148;7.014;2022-10-30T06:04:52;13.60;1.00
6756;DHT22;3415;51.148;7.014;2022-10-30T06:07:19;13.50;1.00
6756;DHT22;3415;51.148;7.014;2022-10-30T06:09:46;13.50;1.00
6756;DHT22;3415;51.148;7.014;2022-10-30T06:12:13;13.50;1.00
6756;DHT22;3415;51.148;7.014;2022-10-30T06:14:39;13.50;1.00
6756;DHT22;3415;51.148;7.014;2022-10-30T06:17:06;13.50;1.00
6756;DHT22;3415;51.148;7.014;2022-10-30T06:19:33;13.50;1.00
6756;DHT22;3415;51.148;7.014;2022-10-30T06:22:01;13.40;1.00
6756;DHT22;3415;51.148;7.014;2022-10-30T06:26:55;13.30;1.00
6756;DHT22;3415;51.148;7.014;2022-10-30T06:29:22;13.30;1.00
6756;DHT22;3415;51.148;7.014;2022-10-30T06:31:49;13.30;1.00
6756;DHT22;3415;51.148;7.014;2022-10-30T06:34:16;13.30;1.00
6756;DHT22;3415;51.148;7.014;2022-10-30T06:36:43;13.50;1.00
6756;DHT22;3415;51.148;7.014;2022-10-30T06:39:11;13.10;1.00
6756;DHT22;3415;51.148;7.014;2022-10-30T06:41:37;12.90;1.00
6756;DHT22;3415;51.148;7.014;2022-10-30T06:46:31;12.90;1.00
6756;DHT22;3415;51.148;7.014;2022-10-30T06:48:58;13.00;1.00
6756;DHT22;3415;51.148;7.014;2022-10-30T06:51:25;12.90;1.00
6756;DHT22;3415;51.148;7.014;2022-10-30T06:53:52;12.90;1.00
6756;DHT22;3415;51.148;7.014;2022-10-30T06:56:20;12.90;1.00
6756;DHT22;3415;51.148;7.014;2022-10-30T06:58:47;12.90;1.00
6756;DHT22;3415;51.148;7.014;2022-10-30T07:01:14;13.00;1.00
6756;DHT22;3415;51.148;7.014;2022-10-30T07:03:40;13.00;1.00
6756;DHT22;3415;51.148;7.014;2022-10-30T07:08:34;13.10;1.00
6756;DHT22;3415;51.148;7.014;2022-10-30T07:11:01;13.20;1.00
6756;DHT22;3415;51.148;7.014;2022-10-30T07:13:29;13.50;1.00
6756;DHT22;3415;51.148;7.014;2022-10-30T07:15:57;13.60;1.00
6756;DHT22;3415;51.148;7.014;2022-10-30T07:18:24;13.60;1.00
6756;DHT22;3415;51.148;7.014;2022-10-30T07:20:53;13.70;1.00
6756;DHT22;3415;51.148;7.014;2022-10-30T07:23:20;13.80;1.00
6756;DHT22;3415;51.148;7.014;2022-10-30T07:25:47;13.90;1.00
6756;DHT22;3415;51.148;7.014;2022-10-30T07:28:14;14.10;1.00
6756;DHT22;3415;51.148;7.014;2022-10-30T07:30:42;14.10;1.00
6756;DHT22;3415;51.148;7.014;2022-10-30T07:33:09;14.40;1.00
6756;DHT22;3415;51.148;7.014;2022-10-30T07:35:36;14.30;1.00
6756;DHT22;3415;51.148;7.014;2022-10-30T07:38:03;14.30;1.00
6756;DHT22;3415;51.148;7.014;2022-10-30T07:40:30;14.60;1.00
6756;DHT22;3415;51.148;7.014;2022-10-30T07:42:58;14.50;1.00
6756;DHT22;3415;51.148;7.014;2022-10-30T07:45:26;14.90;1.00
6756;DHT22;3415;51.148;7.014;2022-10-30T07:47:54;14.90;1.00
6756;DHT22;3415;51.148;7.014;2022-10-30T07:50:22;15.20;1.00
6756;DHT22;3415;51.148;7.014;2022-10-30T07:52:49;15.50;1.00
6756;DHT22;3415;51.148;7.014;2022-10-30T07:55:16;15.80;1.00
6756;DHT22;3415;51.148;7.014;2022-10-30T07:57:42;16.10;1.00
6756;DHT22;3415;51.148;7.014;2022-10-30T08:00:11;16.30;1.00
6756;DHT22;3415;51.148;7.014;2022-10-30T08:02:38;16.40;1.00
6756;DHT22;3415;51.148;7.014;2022-10-30T08:05:07;16.70;1.00
6756;DHT22;3415;51.148;7.014;2022-10-30T08:07:35;17.70;1.00
6756;DHT22;3415;51.148;7.014;2022-10-30T08:10:03;18.90;1.00
6756;DHT22;3415;51.148;7.014;2022-10-30T08:12:31;19.50;1.00
6756;DHT22;3415;51.148;7.014;2022-10-30T08:14:58;20.20;1.00
6756;DHT22;3415;51.148;7.014;2022-10-30T08:17:25;20.20;1.00
6756;DHT22;3415;51.148;7.014;2022-10-30T08:19:52;21.30;1.00
6756;DHT22;3415;51.148;7.014;2022-10-30T08:22:21;22.60;1.00
6756;DHT22;3415;51.148;7.014;2022-10-30T08:24:48;23.60;99.90
6756;DHT22;3415;51.148;7.014;2022-10-30T08:27:14;24.40;99.90
6756;DHT22;3415;51.148;7.014;2022-10-30T08:29:41;24.80;99.90
6756;DHT22;3415;51.148;7.014;2022-10-30T08:32:08;24.80;99.90
6756;DHT22;3415;51.148;7.014;2022-10-30T08:34:35;25.10;99.90
6756;DHT22;3415;51.148;7.014;2022-10-30T08:37:01;25.70;99.90
6756;DHT22;3415;51.148;7.014;2022-10-30T08:39:30;26.10;99.90
6756;DHT22;3415;51.148;7.014;2022-10-30T08:41:57;26.20;99.90
6756;DHT22;3415;51.148;7.014;2022-10-30T08:44:25;26.00;99.90
6756;DHT22;3415;51.148;7.014;2022-10-30T08:46:51;26.20;99.90
6756;DHT22;3415;51.148;7.014;2022-10-30T08:49:18;25.10;99.90
6756;DHT22;3415;51.148;7.014;2022-10-30T08:51:45;24.80;99.90
6756;DHT22;3415;51.148;7.014;2022-10-30T08:54:12;25.20;99.90
6756;DHT22;3415;51.148;7.014;2022-10-30T08:56:41;26.30;99.90
6756;DHT22;3415;51.148;7.014;2022-10-30T08:59:07;26.00;99.90
6756;DHT22;3415;51.148;7.014;2022-10-30T09:01:34;25.40;99.90
6756;DHT22;3415;51.148;7.014;2022-10-30T09:04:01;25.00;99.90
6756;DHT22;3415;51.148;7.014;2022-10-30T09:06:29;25.40;99.90
6756;DHT22;3415;51.148;7.014;2022-10-30T09:08:56;25.00;99.90
6756;DHT22;3415;51.148;7.014;2022-10-30T09:11:23;25.00;99.90
6756;DHT22;3415;51.148;7.014;2022-10-30T09:13:51;25.60;99.90
6756;DHT22;3415;51.148;7.014;2022-10-30T09:16:18;27.10;99.90
6756;DHT22;3415;51.148;7.014;2022-10-30T09:18:45;26.60;99.90
6756;DHT22;3415;51.148;7.014;2022-10-30T09:21:11;27.00;99.90
6756;DHT22;3415;51.148;7.014;2022-10-30T09:23:38;26.90;99.90
6756;DHT22;3415;51.148;7.014;2022-10-30T09:26:05;26.50;99.90
6756;DHT22;3415;51.148;7.014;2022-10-30T09:28:32;26.60;99.90
6756;DHT22;3415;51.148;7.014;2022-10-30T09:31:01;25.90;99.90
6756;DHT22;3415;51.148;7.014;2022-10-30T09:33:28;26.10;99.90
6756;DHT22;3415;51.148;7.014;2022-10-30T09:35:55;26.70;99.90
6756;DHT22;3415;51.148;7.014;2022-10-30T09:38:22;26.90;99.90
6756;DHT22;3415;51.148;7.014;2022-10-30T09:41:02;27.10;99.90
6756;DHT22;3415;51.148;7.014;2022-10-30T09:43:41;27.10;99.90
6756;DHT22;3415;51.148;7.014;2022-10-30T09:46:26;26.40;99.90
6756;DHT22;3415;51.148;7.014;2022-10-30T09:49:04;25.60;99.90
6756;DHT22;3415;51.148;7.014;2022-10-30T09:52:07;26.00;99.90
6756;DHT22;3415;51.148;7.014;2022-10-30T09:54:48;25.20;99.90
6756;DHT22;3415;51.148;7.014;2022-10-30T09:57:26;25.40;99.90
6756;DHT22;3415;51.148;7.014;2022-10-30T10:00:02;26.30;99.90
6756;DHT22;3415;51.148;7.014;2022-10-30T10:02:34;26.50;99.90
6756;DHT22;3415;51.148;7.014;2022-10-30T10:05:12;26.40;99.90
6756;DHT22;3415;51.148;7.014;2022-10-30T10:07:43;25.60;99.90
6756;DHT22;3415;51.148;7.014;2022-10-30T10:10:16;26.30;99.90
6756;DHT22;3415;51.148;7.014;2022-10-30T10:12:45;26.40;99.90
6756;DHT22;3415;51.148;7.014;2022-10-30T10:15:19;26.70;99.90
6756;DHT22;3415;51.148;7.014;2022-10-30T10:17:47;26.20;99.90
6756;DHT22;3415;51.148;7.014;2022-10-30T10:20:16;26.40;99.90
6756;DHT22;3415;51.148;7.014;2022-10-30T10:22:47;26.90;99.90
6756;DHT22;3415;51.148;7.014;2022-10-30T10:25:16;26.90;99.90
6756;DHT22;3415;51.148;7.014;2022-10-30T10:27:56;26.30;99.90
6756;DHT22;3415;51.148;7.014;2022-10-30T10:30:31;27.30;99.90
6756;DHT22;3415;51.148;7.014;2022-10-30T10:33:23;28.10;99.90
6756;DHT22;3415;51.148;7.014;2022-10-30T10:36:07;28.00;99.90
6756;DHT22;3415;51.148;7.014;2022-10-30T10:38:44;27.20;99.90
6756;DHT22;3415;51.148;7.014;2022-10-30T10:41:23;27.30;99.90
6756;DHT22;3415;51.148;7.014;2022-10-30T10:44:09;27.50;99.90
6756;DHT22;3415;51.148;7.014;2022-10-30T10:46:49;29.40;99.90
6756;DHT22;3415;51.148;7.014;2022-10-30T10:49:35;29.40;99.90
6756;DHT22;3415;51.148;7.014;2022-10-30T10:52:09;28.90;99.90
6756;DHT22;3415;51.148;7.014;2022-10-30T10:54:42;28.90;99.90
6756;DHT22;3415;51.148;7.014;2022-10-30T10:57:15;28.30;99.90
6756;DHT22;3415;51.148;7.014;2022-10-30T10:59:44;28.30;99.90
6756;DHT22;3415;51.148;7.014;2022-10-30T11:02:27;27.30;99.90
6756;DHT22;3415;51.148;7.014;2022-10-30T11:05:00;28.30;99.90
6756;DHT22;3415;51.148;7.014;2022-10-30T11:07:31;28.40;99.90
6756;DHT22;3415;51.148;7.014;2022-10-30T11:09:58;28.10;99.90
6756;DHT22;3415;51.148;7.014;2022-10-30T11:12:27;28.10;99.90
6756;DHT22;3415;51.148;7.014;2022-10-30T11:14:55;26.90;99.90
6756;DHT22;3415;51.148;7.014;2022-10-30T11:17:25;26.90;99.90
6756;DHT22;3415;51.148;7.014;2022-10-30T11:19:59;26.10;99.90
6756;DHT22;3415;51.148;7.014;2022-10-30T11:22:30;26.30;99.90
6756;DHT22;3415;51.148;7.014;2022-10-30T11:25:17;26.90;99.90
6756;DHT22;3415;51.148;7.014;2022-10-30T11:27:47;27.00;99.90
6756;DHT22;3415;51.148;7.014;2022-10-30T11:30:19;26.70;99.90
6756;DHT22;3415;51.148;7.014;2022-10-30T11:32:46;26.20;99.90
6756;DHT22;3415;51.148;7.014;2022-10-30T11:35:17;26.10;99.90
6756;DHT22;3415;51.148;7.014;2022-10-30T11:37:46;25.70;99.90
6756;DHT22;3415;51.148;7.014;2022-10-30T11:40:18;25.30;99.90
6756;DHT22;3415;51.148;7.014;2022-10-30T11:42:47;24.70;99.90
6756;DHT22;3415;51.148;7.014;2022-10-30T11:45:17;24.60;99.90
6756;DHT22;3415;51.148;7.014;2022-10-30T11:47:45;24.30;99.90
6756;DHT22;3415;51.148;7.014;2022-10-30T11:50:18;23.50;99.90
6756;DHT22;3415;51.148;7.014;2022-10-30T11:52:47;23.00;99.90
6756;DHT22;3415;51.148;7.014;2022-10-30T11:55:17;22.90;99.90
6756;DHT22;3415;51.148;7.014;2022-10-30T11:57:47;22.80;99.90
6756;DHT22;3415;51.148;7.014;2022-10-30T12:00:17;22.80;99.90
6756;DHT22;3415;51.148;7.014;2022-10-30T12:02:46;22.70;99.90
6756;DHT22;3415;51.148;7.014;2022-10-30T12:05:32;22.60;99.90
6756;DHT22;3415;51.148;7.014;2022-10-30T12:08:20;22.60;99.90
6756;DHT22;3415;51.148;7.014;2022-10-30T12:10:56;22.50;99.90
6756;DHT22;3415;51.148;7.014;2022-10-30T12:13:25;22.50;99.90
6756;DHT22;3415;51.148;7.014;2022-10-30T12:16:07;22.50;99.90
6756;DHT22;3415;51.148;7.014;2022-10-30T12:18:34;22.50;99.90
6756;DHT22;3415;51.148;7.014;2022-10-30T12:21:03;22.60;99.90
6756;DHT22;3415;51.148;7.014;2022-10-30T12:23:31;22.40;99.90
6756;DHT22;3415;51.148;7.014;2022-10-30T12:26:00;22.40;99.90
6756;DHT22;3415;51.148;7.014;2022-10-30T12:28:29;22.40;99.90
6756;DHT22;3415;51.148;7.014;2022-10-30T12:31:01;22.40;99.90
6756;DHT22;3415;51.148;7.014;2022-10-30T12:33:32;22.40;99.90
6756;DHT22;3415;51.148;7.014;2022-10-30T12:36:05;22.50;99.90
6756;DHT22;3415;51.148;7.014;2022-10-30T12:38:35;22.60;99.90
6756;DHT22;3415;51.148;7.014;2022-10-30T12:41:10;22.60;99.90
6756;DHT22;3415;51.148;7.014;2022-10-30T12:43:38;22.50;99.90
6756;DHT22;3415;51.148;7.014;2022-10-30T12:46:19;22.60;99.90
6756;DHT22;3415;51.148;7.014;2022-10-30T12:48:52;22.50;99.90
6756;DHT22;3415;51.148;7.014;2022-10-30T12:51:25;22.50;99.90
6756;DHT22;3415;51.148;7.014;2022-10-30T12:53:58;22.40;99.90
6756;DHT22;3415;51.148;7.014;2022-10-30T12:56:30;22.40;99.90
6756;DHT22;3415;51.148;7.014;2022-10-30T12:59:08;22.30;99.90
6756;DHT22;3415;51.148;7.014;2022-10-30T13:01:44;22.20;99.90
6756;DHT22;3415;51.148;7.014;2022-10-30T13:04:17;22.30;99.90
6756;DHT22;3415;51.148;7.014;2022-10-30T13:06:50;22.30;99.90
6756;DHT22;3415;51.148;7.014;2022-10-30T13:09:22;22.40;99.90
6756;DHT22;3415;51.148;7.014;2022-10-30T13:11:56;22.40;99.90
6756;DHT22;3415;51.148;7.014;2022-10-30T13:14:32;22.40;99.90
6756;DHT22;3415;51.148;7.014;2022-10-30T13:17:00;22.50;99.90
6756;DHT22;3415;51.148;7.014;2022-10-30T13:19:27;22.50;99.90
6756;DHT22;3415;51.148;7.014;2022-10-30T13:22:01;22.50;99.90
6756;DHT22;3415;51.148;7.014;2022-10-30T13:24:41;22.30;99.90
6756;DHT22;3415;51.148;7.014;2022-10-30T13:27:15;22.30;99.90
6756;DHT22;3415;51.148;7.014;2022-10-30T13:29:47;22.30;99.90
6756;DHT22;3415;51.148;7.014;2022-10-30T13:32:26;22.20;99.90
6756;DHT22;3415;51.148;7.014;2022-10-30T13:35:07;22.10;99.90
6756;DHT22;3415;51.148;7.014;2022-10-30T13:37:41;22.20;99.90
6756;DHT22;3415;51.148;7.014;2022-10-30T13:40:15;22.10;99.90
6756;DHT22;3415;51.148;7.014;2022-10-30T13:42:54;22.10;99.90
6756;DHT22;3415;51.148;7.014;2022-10-30T13:45:45;21.90;99.90
6756;DHT22;3415;51.148;7.014;2022-10-30T13:48:25;22.00;99.90
6756;DHT22;3415;51.148;7.014;2022-10-30T13:51:17;22.00;99.90
6756;DHT22;3415;51.148;7.014;2022-10-30T13:54:00;22.00;99.90
6756;DHT22;3415;51.148;7.014;2022-10-30T13:56:29;22.10;99.90
6756;DHT22;3415;51.148;7.014;2022-10-30T13:59:04;22.00;99.90
6756;DHT22;3415;51.148;7.014;2022-10-30T14:01:38;22.10;99.90
6756;DHT22;3415;51.148;7.014;2022-10-30T14:04:11;22.10;99.90
6756;DHT22;3415;51.148;7.014;2022-10-30T14:06:46;22.10;99.90
6756;DHT22;3415;51.148;7.014;2022-10-30T14:09:22;22.30;99.90
6756;DHT22;3415;51.148;7.014;2022-10-30T14:11:52;22.20;99.90
6756;DHT22;3415;51.148;7.014;2022-10-30T14:14:28;22.00;99.90
6756;DHT22;3415;51.148;7.014;2022-10-30T14:17:12;21.90;99.90
6756;DHT22;3415;51.148;7.014;2022-10-30T14:20:24;21.90;99.90
6756;DHT22;3415;51.148;7.014;2022-10-30T14:23:11;21.90;99.90
6756;DHT22;3415;51.148;7.014;2022-10-30T14:25:40;22.00;99.90
6756;DHT22;3415;51.148;7.014;2022-10-30T14:28:18;21.90;99.90
6756;DHT22;3415;51.148;7.014;2022-10-30T14:30:45;21.90;99.90
6756;DHT22;3415;51.148;7.014;2022-10-30T14:33:34;21.90;99.90
6756;DHT22;3415;51.148;7.014;2022-10-30T14:36:13;21.80;99.90
6756;DHT22;3415;51.148;7.014;2022-10-30T14:38:41;21.70;99.90
6756;DHT22;3415;51.148;7.014;2022-10-30T14:41:24;21.70;99.90
6756;DHT22;3415;51.148;7.014;2022-10-30T14:47:02;21.60;99.90
6756;DHT22;3415;51.148;7.014;2022-10-30T14:49:44;21.50;99.90
6756;DHT22;3415;51.148;7.014;2022-10-30T14:52:21;21.50;99.90
6756;DHT22;3415;51.148;7.014;2022-10-30T14:55:00;21.50;99.90
6756;DHT22;3415;51.148;7.014;2022-10-30T14:57:47;23.60;99.90
6756;DHT22;3415;51.148;7.014;2022-10-30T15:00:37;21.50;99.90
6756;DHT22;3415;51.148;7.014;2022-10-30T15:03:08;21.20;99.90
6756;DHT22;3415;51.148;7.014;2022-10-30T15:05:43;21.20;99.90
6756;DHT22;3415;51.148;7.014;2022-10-30T15:08:22;21.00;99.90
6756;DHT22;3415;51.148;7.014;2022-10-30T15:11:14;20.90;99.90
6756;DHT22;3415;51.148;7.014;2022-10-30T15:13:49;20.90;99.90
6756;DHT22;3415;51.148;7.014;2022-10-30T15:16:18;20.80;99.90
6756;DHT22;3415;51.148;7.014;2022-10-30T15:18:46;20.70;99.90
6756;DHT22;3415;51.148;7.014;2022-10-30T15:21:19;20.70;99.90
6756;DHT22;3415;51.148;7.014;2022-10-30T15:23:48;20.70;99.90
6756;DHT22;3415;51.148;7.014;2022-10-30T15:26:19;20.60;99.90
6756;DHT22;3415;51.148;7.014;2022-10-30T15:28:49;20.70;99.90
6756;DHT22;3415;51.148;7.014;2022-10-30T15:31:21;20.50;99.90
6756;DHT22;3415;51.148;7.014;2022-10-30T15:33:48;20.50;99.90
6756;DHT22;3415;51.148;7.014;2022-10-30T15:36:16;20.40;99.90
6756;DHT22;3415;51.148;7.014;2022-10-30T15:38:43;20.30;99.90
6756;DHT22;3415;51.148;7.014;2022-10-30T15:41:10;20.30;99.90
6756;DHT22;3415;51.148;7.014;2022-10-30T15:43:40;20.10;99.90
6756;DHT22;3415;51.148;7.014;2022-10-30T15:46:10;20.00;99.90
6756;DHT22;3415;51.148;7.014;2022-10-30T15:48:39;20.00;99.90
6756;DHT22;3415;51.148;7.014;2022-10-30T15:51:12;20.00;99.90
6756;DHT22;3415;51.148;7.014;2022-10-30T15:53:44;19.90;99.90
6756;DHT22;3415;51.148;7.014;2022-10-30T15:56:17;19.90;99.90
6756;DHT22;3415;51.148;7.014;2022-10-30T15:58:48;19.90;99.90
6756;DHT22;3415;51.148;7.014;2022-10-30T16:01:24;19.80;99.90
6756;DHT22;3415;51.148;7.014;2022-10-30T16:03:52;19.80;99.90
6756;DHT22;3415;51.148;7.014;2022-10-30T16:06:23;19.70;99.90
6756;DHT22;3415;51.148;7.014;2022-10-30T16:08:50;19.60;99.90
6756;DHT22;3415;51.148;7.014;2022-10-30T16:11:17;19.50;99.90
6756;DHT22;3415;51.148;7.014;2022-10-30T16:13:45;19.50;99.90
6756;DHT22;3415;51.148;7.014;2022-10-30T16:16:18;19.30;99.90
6756;DHT22;3415;51.148;7.014;2022-10-30T16:18:47;19.30;99.90
6756;DHT22;3415;51.148;7.014;2022-10-30T16:21:16;19.20;99.90
6756;DHT22;3415;51.148;7.014;2022-10-30T16:23:48;19.20;99.90
6756;DHT22;3415;51.148;7.014;2022-10-30T16:26:24;19.10;99.90
6756;DHT22;3415;51.148;7.014;2022-10-30T16:28:51;19.10;99.90
6756;DHT22;3415;51.148;7.014;2022-10-30T16:31:18;19.00;99.90
6756;DHT22;3415;51.148;7.014;2022-10-30T16:33:47;18.90;99.90
6756;DHT22;3415;51.148;7.014;2022-10-30T16:36:15;18.90;99.90
6756;DHT22;3415;51.148;7.014;2022-10-30T16:38:46;18.80;99.90
6756;DHT22;3415;51.148;7.014;2022-10-30T16:41:14;18.80;99.90
6756;DHT22;3415;51.148;7.014;2022-10-30T16:43:43;18.80;99.90
6756;DHT22;3415;51.148;7.014;2022-10-30T16:46:34;18.70;99.90